Time;durP1;ratioP1;P1;durP2;ratioP2;P2;SDS_P1;SDS_P2;PMS_P1;PMS_P2;Temp;Humidity;BMP_temperature;BMP_pressure;BME280_temperature;BME280_humidity;BME280_pressure;Samples;Min_cycle;Max_cycle;Signal;HPM_P1;HPM_P2
2023/11/19 00:03:40;;;;;;;;;;;;;;;20.12;39.30;95708.88;10476735;28;2528;-54
2023/11/19 00:08:40;;;;;;;;;;;;;;;20.07;39.07;95697.59;10479757;28;2569;-53
2023/11/19 00:13:40;;;;;;;;;;;;;;;20.10;39.06;95691.78;10474306;28;4684;-53
2023/11/19 00:18:40;;;;;;;;;;;;;;;20.03;39.17;95665.00;10475181;28;2649;-54
2023/11/19 00:23:41;;;;;;;;;;;;;;;20.04;38.99;95656.03;10471636;28;2614;-53
2023/11/19 00:28:43;;;;;;;;;;;;;;;20.08;39.00;95657.06;10476344;28;2694;-52
2023/11/19 00:33:43;;;;;;;;;;;;;;;20.08;38.79;95657.06;10477026;28;2611;-51
2023/11/19 00:38:43;;;;;;;;;;;;;;;20.02;39.03;95642.34;10478534;28;2600;-53
2023/11/19 00:43:44;;;;;;;;;;;;;;;19.96;39.17;95646.06;10482488;28;2632;-53
2023/11/19 00:48:47;;;;;;;;;;;;;;;20.02;38.83;95637.09;10469955;28;2602;-54
2023/11/19 00:53:47;;;;;;;;;;;;;;;20.02;38.83;95623.94;10476333;28;2738;-54
2023/11/19 00:58:47;;;;;;;;;;;;;;;19.99;38.89;95616.59;10475539;28;2656;-53
2023/11/19 01:03:48;;;;;;;;;;;;;;;19.96;39.07;95615.28;10470591;28;2604;-55
2023/11/19 01:08:48;;;;;;;;;;;;;;;19.93;39.00;95612.41;10473204;28;2619;-55
2023/11/19 01:13:48;;;;;;;;;;;;;;;19.94;38.94;95603.47;10467222;28;4711;-54
2023/11/19 01:18:48;;;;;;;;;;;;;;;19.95;38.63;95611.06;10466080;28;2619;-53
2023/11/19 01:23:49;;;;;;;;;;;;;;;19.96;38.55;95604.78;10458719;28;2613;-56
2023/11/19 01:28:52;;;;;;;;;;;;;;;19.92;38.82;95597.69;10476049;28;2616;-55
2023/11/19 01:33:52;;;;;;;;;;;;;;;19.86;38.90;95591.69;10484514;28;2685;-54
2023/11/19 01:38:53;;;;;;;;;;;;;;;19.89;38.54;95595.59;10468036;28;2544;-56
2023/11/19 01:43:54;;;;;;;;;;;;;;;19.86;38.80;95577.75;10473609;28;2652;-55
2023/11/19 01:48:55;;;;;;;;;;;;;;;19.81;38.74;95577.75;10472551;28;2693;-53
2023/11/19 01:53:56;;;;;;;;;;;;;;;19.76;39.11;95572.53;10455982;28;2619;-54
2023/11/19 01:58:56;;;;;;;;;;;;;;;19.66;39.33;95569.97;10477458;28;2885;-55
2023/11/19 02:03:58;;;;;;;;;;;;;;;19.64;39.50;95558.94;10466652;28;2693;-54
2023/11/19 02:08:58;;;;;;;;;;;;;;;19.56;39.48;95554.25;10480549;28;2563;-54
2023/11/19 02:13:58;;;;;;;;;;;;;;;19.51;39.65;95543.75;10475397;28;4567;-55
2023/11/19 02:18:58;;;;;;;;;;;;;;;19.47;39.60;95533.00;10471921;28;2582;-55
2023/11/19 02:23:59;;;;;;;;;;;;;;;19.43;39.58;95524.09;10470884;28;2623;-52
2023/11/19 02:28:59;;;;;;;;;;;;;;;19.39;39.63;95508.06;10459999;28;2646;-53
2023/11/19 02:34:02;;;;;;;;;;;;;;;19.38;39.68;95498.63;10454107;28;2597;-54
2023/11/19 02:39:02;;;;;;;;;;;;;;;19.35;39.76;95501.00;10472756;28;2617;-55
2023/11/19 02:44:03;;;;;;;;;;;;;;;19.32;39.81;95497.03;10478723;28;2542;-55
2023/11/19 02:49:03;;;;;;;;;;;;;;;19.31;39.68;95494.66;10461311;28;2694;-52
2023/11/19 02:54:03;;;;;;;;;;;;;;;19.29;39.80;95476.53;10463625;28;2707;-50
2023/11/19 02:59:11;;;;;;;;;;;;;;;19.27;39.98;95462.91;10475428;28;2594;-54
2023/11/19 03:04:12;;;;;;;;;;;;;;;19.24;40.02;95463.44;10478719;28;2614;-54
2023/11/19 03:09:12;;;;;;;;;;;;;;;19.24;39.99;95463.44;10472724;28;2561;-55
2023/11/19 03:14:12;;;;;;;;;;;;;;;19.22;40.12;95455.06;10480700;28;4692;-53
2023/11/19 03:19:12;;;;;;;;;;;;;;;19.20;40.24;95451.91;10481447;28;4398;-53
2023/11/19 03:24:13;;;;;;;;;;;;;;;19.19;40.33;95452.97;10480597;28;2549;-54
2023/11/19 03:29:13;;;;;;;;;;;;;;;19.18;40.40;95443.53;10476826;28;3000;-54
2023/11/19 03:34:13;;;;;;;;;;;;;;;19.16;40.60;95440.38;10474731;28;2648;-53
2023/11/19 03:39:14;;;;;;;;;;;;;;;19.17;40.51;95446.41;10486018;28;2559;-53
2023/11/19 03:44:14;;;;;;;;;;;;;;;19.14;40.29;95453.00;10478254;28;2604;-55
2023/11/19 03:49:14;;;;;;;;;;;;;;;19.14;40.46;95453.00;10477110;28;2672;-59
2023/11/19 03:54:15;;;;;;;;;;;;;;;19.14;40.37;95453.00;10480998;28;2666;-54
2023/11/19 03:59:15;;;;;;;;;;;;;;;19.12;40.36;95449.06;10480844;28;2677;-54
2023/11/19 04:04:15;;;;;;;;;;;;;;;19.11;40.59;95445.66;10474305;28;2605;-53
2023/11/19 04:09:16;;;;;;;;;;;;;;;19.10;40.52;95451.94;10480274;28;2679;-55
2023/11/19 04:14:18;;;;;;;;;;;;;;;19.09;40.52;95450.38;10478024;28;4677;-54
2023/11/19 04:19:19;;;;;;;;;;;;;;;19.07;40.61;95455.13;10493871;28;2706;-53
2023/11/19 04:24:19;;;;;;;;;;;;;;;19.06;40.45;95458.03;10473534;28;2637;-51
2023/11/19 04:29:19;;;;;;;;;;;;;;;19.04;40.56;95454.91;10480797;28;2618;-54
2023/11/19 04:34:19;;;;;;;;;;;;;;;19.05;40.45;95457.25;10472317;28;2712;-53
2023/11/19 04:39:21;;;;;;;;;;;;;;;19.06;40.08;95458.03;10476853;28;2756;-53
2023/11/19 04:44:21;;;;;;;;;;;;;;;19.04;40.38;95453.03;10480569;28;2681;-52
2023/11/19 04:49:26;;;;;;;;;;;;;;;19.03;40.48;95446.22;10466060;28;2525;-55
2023/11/19 04:54:27;;;;;;;;;;;;;;;19.03;40.47;95456.72;10463185;28;2557;-50
2023/11/19 04:59:27;;;;;;;;;;;;;;;19.00;40.58;95465.13;10481327;28;2556;-54
2023/11/19 05:04:27;;;;;;;;;;;;;;;19.05;40.30;95465.13;10483077;28;2742;-54
2023/11/19 05:09:28;;;;;;;;;;;;;;;19.08;40.68;95469.81;10465790;28;2549;-54
2023/11/19 05:14:28;;;;;;;;;;;;;;;19.10;40.52;95472.97;10477823;28;4703;-54
2023/11/19 05:19:28;;;;;;;;;;;;;;;19.18;40.42;95469.00;10484363;28;2609;-55
2023/11/19 05:24:29;;;;;;;;;;;;;;;19.25;40.44;95488.66;10478219;28;2678;-55
2023/11/19 05:29:29;;;;;;;;;;;;;;;19.31;40.32;95490.19;10458593;28;2615;-53
2023/11/19 05:34:29;;;;;;;;;;;;;;;19.36;40.44;95489.44;10471854;28;2654;-53
2023/11/19 05:39:30;;;;;;;;;;;;;;;19.42;40.20;95491.75;10471757;28;2591;-53
2023/11/19 05:44:30;;;;;;;;;;;;;;;19.47;40.11;95490.94;10478827;28;2568;-54
2023/11/19 05:49:31;;;;;;;;;;;;;;;19.51;40.13;95488.56;10477240;28;2593;-53
2023/11/19 05:54:33;;;;;;;;;;;;;;;19.56;40.23;95489.28;10475132;28;2552;-54
2023/11/19 05:59:33;;;;;;;;;;;;;;;19.59;40.33;95480.88;10461660;28;2606;-55
2023/11/19 06:04:33;;;;;;;;;;;;;;;19.64;40.27;95480.06;10472884;28;2667;-55
2023/11/19 06:09:34;;;;;;;;;;;;;;;19.66;40.40;95483.19;10474048;28;2587;-55
2023/11/19 06:14:34;;;;;;;;;;;;;;;19.70;40.44;95487.63;10474027;28;4641;-56
2023/11/19 06:19:34;;;;;;;;;;;;;;;19.74;40.22;95498.41;10479977;28;2643;-54
2023/11/19 06:24:34;;;;;;;;;;;;;;;19.77;40.21;95476.78;10469597;28;2616;-55
2023/11/19 06:29:35;;;;;;;;;;;;;;;19.79;40.36;95490.44;10477149;28;3000;-54
2023/11/19 06:34:36;;;;;;;;;;;;;;;19.83;40.29;95486.22;10472710;28;2612;-54
2023/11/19 06:39:37;;;;;;;;;;;;;;;19.87;40.30;95487.22;10471013;28;2689;-54
2023/11/19 06:44:37;;;;;;;;;;;;;;;19.87;40.41;95484.59;10473780;28;2675;-55
2023/11/19 06:49:37;;;;;;;;;;;;;;;19.90;40.50;95489.31;10474220;28;2592;-55
2023/11/19 06:54:40;;;;;;;;;;;;;;;19.92;40.75;95498.53;10481417;28;2552;-51
2023/11/19 06:59:40;;;;;;;;;;;;;;;19.96;40.41;95501.38;10480423;28;2641;-55
2023/11/19 07:04:41;;;;;;;;;;;;;;;19.99;40.57;95495.59;10477786;28;2745;-54
2023/11/19 07:09:41;;;;;;;;;;;;;;;19.97;40.22;95506.34;10463982;28;2632;-55
2023/11/19 07:14:41;;;;;;;;;;;;;;;20.04;40.30;95508.69;10488673;28;2699;-55
2023/11/19 07:19:44;;;;;;;;;;;;;;;20.03;40.11;95507.88;10482053;28;2564;-54
2023/11/19 07:24:44;;;;;;;;;;;;;;;20.07;40.19;95502.88;10479286;28;2581;-52
2023/11/19 07:29:45;;;;;;;;;;;;;;;20.06;40.48;95512.63;10485632;28;2646;-53
2023/11/19 07:34:45;;;;;;;;;;;;;;;20.09;40.21;95517.31;10479964;28;2616;-54
2023/11/19 07:39:45;;;;;;;;;;;;;;;20.12;40.46;95531.75;10483658;28;2612;-56
2023/11/19 07:44:46;;;;;;;;;;;;;;;20.12;40.26;95542.28;10479458;28;2663;-55
2023/11/19 07:49:46;;;;;;;;;;;;;;;20.14;40.45;95545.44;10477543;28;2546;-52
2023/11/19 07:54:46;;;;;;;;;;;;;;;20.16;40.03;95543.31;10477893;28;2657;-53
2023/11/19 07:59:46;;;;;;;;;;;;;;;20.16;40.03;95544.09;10484124;28;2957;-55
2023/11/19 08:04:49;;;;;;;;;;;;;;;20.18;40.27;95543.81;10476857;28;2622;-53
2023/11/19 08:09:50;;;;;;;;;;;;;;;20.20;40.27;95544.34;10483338;28;2704;-53
2023/11/19 08:14:50;;;;;;;;;;;;;;;20.21;40.22;95551.22;10458833;28;4668;-55
2023/11/19 08:19:50;;;;;;;;;;;;;;;20.19;39.88;95551.50;10485224;28;2572;-55
2023/11/19 08:24:51;;;;;;;;;;;;;;;20.18;40.34;95551.72;10483676;28;2602;-54
2023/11/19 08:29:51;;;;;;;;;;;;;;;20.17;39.93;95547.53;10477894;28;2724;-55
2023/11/19 08:34:52;;;;;;;;;;;;;;;20.17;40.07;95552.78;10475347;28;2635;-55
2023/11/19 08:39:52;;;;;;;;;;;;;;;20.14;40.15;95554.13;10488502;28;2607;-55
2023/11/19 08:44:54;;;;;;;;;;;;;;;20.15;40.27;95553.03;10458309;28;2583;-53
2023/11/19 08:49:55;;;;;;;;;;;;;;;20.14;40.60;95555.97;10474932;28;2565;-54
2023/11/19 08:54:55;;;;;;;;;;;;;;;20.11;40.53;95559.91;10475098;28;2557;-52
2023/11/19 08:59:56;;;;;;;;;;;;;;;20.09;40.30;95556.00;10475676;28;2641;-54
2023/11/19 09:04:56;;;;;;;;;;;;;;;20.05;40.28;95562.88;10478916;28;2628;-53
2023/11/19 09:09:56;;;;;;;;;;;;;;;19.99;40.36;95550.81;10474866;28;2782;-54
2023/11/19 09:14:57;;;;;;;;;;;;;;;19.99;40.50;95538.44;10478488;28;2617;-55
2023/11/19 09:19:57;;;;;;;;;;;;;;;19.97;40.09;95551.09;10475550;28;2591;-55
2023/11/19 09:25:00;;;;;;;;;;;;;;;19.95;40.40;95557.66;10474825;28;2639;-55
2023/11/19 09:30:00;;;;;;;;;;;;;;;19.91;40.21;95561.91;10477866;28;2552;-53
2023/11/19 09:35:00;;;;;;;;;;;;;;;19.90;40.30;95573.50;10472526;28;2624;-55
2023/11/19 09:40:00;;;;;;;;;;;;;;;19.87;40.25;95579.28;10489171;28;2556;-55
2023/11/19 09:45:01;;;;;;;;;;;;;;;19.82;40.46;95574.09;10468052;28;2572;-54
2023/11/19 09:50:01;;;;;;;;;;;;;;;19.83;40.24;95570.38;10452930;28;2534;-56
2023/11/19 09:55:02;;;;;;;;;;;;;;;19.81;40.33;95556.72;10478336;28;2605;-56
2023/11/19 10:00:04;;;;;;;;;;;;;;;19.78;40.35;95546.75;10475001;28;2548;-54
2023/11/19 10:05:06;;;;;;;;;;;;;;;19.76;40.44;95543.63;10465031;28;2565;-55
2023/11/19 10:10:07;;;;;;;;;;;;;;;19.73;40.38;95529.16;10484447;28;2664;-55
2023/11/19 10:15:07;;;;;;;;;;;;;;;19.74;40.47;95535.22;10477486;28;2615;-55
2023/11/19 10:20:08;;;;;;;;;;;;;;;19.73;40.71;95526.53;10455769;28;2581;-55
2023/11/19 10:25:21;;;;;;;;;;;;;;;19.70;40.64;95523.66;10474843;28;2683;-52
2023/11/19 10:30:22;;;;;;;;;;;;;;;19.69;40.53;95522.88;10486394;28;2543;-57
2023/11/19 10:35:23;;;;;;;;;;;;;;;19.70;40.55;95513.16;10488648;28;3149;-54
2023/11/19 10:40:23;;;;;;;;;;;;;;;19.67;40.56;95503.16;10485116;28;2570;-55
2023/11/19 10:45:23;;;;;;;;;;;;;;;19.64;41.01;95503.72;10467199;28;2632;-54
2023/11/19 10:50:25;;;;;;;;;;;;;;;19.63;40.81;95497.69;10467204;28;2607;-54
2023/11/19 10:55:29;;;;;;;;;;;;;;;19.65;40.98;95494.75;10487794;28;2580;-53
2023/11/19 11:00:30;;;;;;;;;;;;;;;19.63;40.85;95489.00;10483055;28;2626;-54
2023/11/19 11:05:32;;;;;;;;;;;;;;;19.60;41.12;95492.19;10473876;28;2568;-55
2023/11/19 11:10:35;;;;;;;;;;;;;;;19.61;40.72;95494.53;10481835;28;2615;-55
2023/11/19 11:15:36;;;;;;;;;;;;;;;19.60;40.95;95481.66;10486264;28;4638;-54
2023/11/19 11:20:36;;;;;;;;;;;;;;;19.60;40.85;95479.03;10467322;28;2700;-53
2023/11/19 11:25:39;;;;;;;;;;;;;;;19.57;41.26;95476.94;10470859;28;2604;-56
2023/11/19 11:30:55;;;;;;;;;;;;;;;19.59;40.56;95474.81;10483782;28;2548;-55
2023/11/19 11:36:02;;;;;;;;;;;;;;;19.56;41.13;95470.13;10462973;28;2673;-55
2023/11/19 11:41:15;;;;;;;;;;;;;;;19.56;40.83;95470.13;10486946;28;2605;-55
2023/11/19 11:46:34;;;;;;;;;;;;;;;19.54;41.31;95456.47;10476619;28;2652;-55
2023/11/19 11:51:44;;;;;;;;;;;;;;;19.53;41.25;95450.41;10482158;28;2533;-52
2023/11/19 11:57:00;;;;;;;;;;;;;;;19.54;41.41;95464.34;10482528;28;2607;-55
2023/11/19 12:02:00;;;;;;;;;;;;;;;19.53;41.72;95465.41;10485676;28;2609;-53
2023/11/19 12:07:06;;;;;;;;;;;;;;;19.53;41.73;95454.88;10480028;28;2600;-57
2023/11/19 12:12:22;;;;;;;;;;;;;;;19.52;41.89;95451.47;10477540;28;2552;-56
2023/11/19 12:17:34;;;;;;;;;;;;;;;19.53;41.95;95460.16;10482962;28;2636;-54
2023/11/19 12:22:38;;;;;;;;;;;;;;;19.52;41.92;95469.88;10484298;28;2610;-55
2023/11/19 12:27:48;;;;;;;;;;;;;;;19.53;42.08;95453.06;10478373;28;2894;-55
2023/11/19 12:32:49;;;;;;;;;;;;;;;19.53;42.05;95441.75;10479017;28;2711;-53
2023/11/19 12:37:50;;;;;;;;;;;;;;;19.53;41.89;95425.97;10476076;28;2536;-56
2023/11/19 12:42:53;;;;;;;;;;;;;;;19.53;41.99;95420.72;10485868;28;2556;-56
2023/11/19 12:48:06;;;;;;;;;;;;;;;19.54;42.05;95425.69;10473436;28;2655;-53
2023/11/19 12:53:07;;;;;;;;;;;;;;;19.55;42.07;95421.22;10465406;28;2648;-54
2023/11/19 12:58:07;;;;;;;;;;;;;;;19.53;42.12;95404.94;10480003;28;2602;-56
2023/11/19 13:03:07;;;;;;;;;;;;;;;19.55;42.37;95416.75;10479990;28;2609;-54
2023/11/19 13:08:08;;;;;;;;;;;;;;;19.55;42.19;95416.75;10477575;28;2662;-54
2023/11/19 13:13:14;;;;;;;;;;;;;;;19.55;42.38;95408.06;10530586;27;4617;-52
2023/11/19 13:18:15;;;;;;;;;;;;;;;19.54;42.18;95409.16;10529036;28;2754;-52
2023/11/19 13:23:15;;;;;;;;;;;;;;;19.51;42.32;95420.19;10538123;28;2599;-55
2023/11/19 13:28:16;;;;;;;;;;;;;;;19.47;42.30;95407.59;10529572;28;2561;-52
2023/11/19 13:33:16;;;;;;;;;;;;;;;19.45;42.34;95391.31;10534863;28;2615;-55
2023/11/19 13:38:16;;;;;;;;;;;;;;;19.44;42.37;95392.38;10534119;28;2723;-55
2023/11/19 13:43:16;;;;;;;;;;;;;;;19.42;42.33;95384.00;10536302;28;2574;-51
2023/11/19 13:48:17;;;;;;;;;;;;;;;19.41;42.41;95387.66;10526527;28;2748;-54
2023/11/19 13:53:17;;;;;;;;;;;;;;;19.39;42.17;95392.41;10559288;27;3006;-56
2023/11/19 13:58:17;;;;;;;;;;;;;;;19.37;42.32;95389.28;10529162;28;2535;-53
2023/11/19 14:03:18;;;;;;;;;;;;;;;19.35;42.18;95386.13;10523504;28;3078;-55
2023/11/19 14:08:18;;;;;;;;;;;;;;;19.34;42.43;95368.81;10527948;28;2598;-50
2023/11/19 14:13:18;;;;;;;;;;;;;;;19.37;42.74;95370.88;10529110;28;4664;-53
2023/11/19 14:18:20;;;;;;;;;;;;;;;19.35;42.86;95365.09;10525367;28;2927;-54
2023/11/19 14:23:21;;;;;;;;;;;;;;;19.35;43.01;95364.34;10507826;28;2660;-55
2023/11/19 14:28:21;;;;;;;;;;;;;;;19.34;42.95;95368.81;10496105;28;2635;-53
2023/11/19 14:33:21;;;;;;;;;;;;;;;19.35;42.92;95373.00;10507061;28;2555;-54
2023/11/19 14:38:22;;;;;;;;;;;;;;;19.35;42.90;95377.47;10498059;28;2651;-54
2023/11/19 14:43:23;;;;;;;;;;;;;;;19.36;42.77;95376.41;10496068;28;2852;-49
2023/11/19 14:48:24;;;;;;;;;;;;;;;19.41;42.71;95377.16;10496774;28;2739;-50
2023/11/19 14:53:25;;;;;;;;;;;;;;;19.48;42.69;95377.63;10492758;28;2615;-53
2023/11/19 14:58:25;;;;;;;;;;;;;;;19.55;42.67;95363.38;10494407;28;2550;-51
2023/11/19 15:03:26;;;;;;;;;;;;;;;19.61;42.52;95360.44;10499239;28;2658;-55
2023/11/19 15:08:26;;;;;;;;;;;;;;;19.67;42.63;95363.81;10499874;28;2594;-54
2023/11/19 15:13:26;;;;;;;;;;;;;;;19.74;42.33;95369.53;10494718;28;4696;-55
2023/11/19 15:18:27;;;;;;;;;;;;;;;19.78;42.31;95365.28;10504075;28;2640;-56
2023/11/19 15:23:29;;;;;;;;;;;;;;;19.83;42.38;95362.59;10494197;28;2667;-54
2023/11/19 15:28:29;;;;;;;;;;;;;;;19.87;42.32;95355.72;10494868;28;2658;-54
2023/11/19 15:33:29;;;;;;;;;;;;;;;19.90;42.31;95371.75;10482812;28;2582;-55
2023/11/19 15:38:30;;;;;;;;;;;;;;;19.95;42.19;95378.78;10493968;28;2595;-56
2023/11/19 15:43:30;;;;;;;;;;;;;;;19.98;42.41;95379.03;10493031;28;2561;-54
2023/11/19 15:48:30;;;;;;;;;;;;;;;20.01;42.31;95383.72;10495928;28;2552;-55
2023/11/19 15:53:31;;;;;;;;;;;;;;;20.07;42.35;95377.34;10491834;28;2586;-52
2023/11/19 15:58:31;;;;;;;;;;;;;;;20.15;42.71;95392.53;10500233;28;2620;-54
2023/11/19 16:03:33;;;;;;;;;;;;;;;20.22;42.77;95398.28;10498154;28;2662;-49
2023/11/19 16:08:33;;;;;;;;;;;;;;;20.30;42.93;95402.13;10493261;28;2758;-53
2023/11/19 16:13:33;;;;;;;;;;;;;;;20.37;42.96;95392.06;10495267;28;4593;-52
2023/11/19 16:18:33;;;;;;;;;;;;;;;20.41;42.37;95394.91;10494840;28;2745;-51
2023/11/19 16:23:34;;;;;;;;;;;;;;;20.43;42.08;95396.22;10498018;28;2664;-53
2023/11/19 16:28:35;;;;;;;;;;;;;;;20.50;42.86;95393.25;10492896;28;2656;-55
2023/11/19 16:33:35;;;;;;;;;;;;;;;20.64;43.28;95387.00;10497874;28;2670;-53
2023/11/19 16:38:35;;;;;;;;;;;;;;;20.70;43.70;95385.88;10498043;28;2614;-52
2023/11/19 16:43:38;;;;;;;;;;;;;;;20.75;44.14;95377.13;10496441;28;2759;-51
2023/11/19 16:48:38;;;;;;;;;;;;;;;20.82;43.53;95377.56;10498121;28;2574;-54
2023/11/19 16:53:38;;;;;;;;;;;;;;;20.85;43.50;95383.06;10495459;28;2670;-51
2023/11/19 16:58:41;;;;;;;;;;;;;;;20.89;43.19;95378.00;10502275;28;3126;-54
2023/11/19 17:03:42;;;;;;;;;;;;;;;20.91;43.55;95376.66;10494268;28;2617;-55
2023/11/19 17:08:42;;;;;;;;;;;;;;;20.96;43.50;95386.31;10493645;28;2675;-53
2023/11/19 17:13:42;;;;;;;;;;;;;;;20.96;43.47;95379.22;10495880;28;4704;-53
2023/11/19 17:18:42;;;;;;;;;;;;;;;20.98;43.82;95400.00;10496671;28;2666;-50
2023/11/19 17:23:43;;;;;;;;;;;;;;;21.02;43.01;95393.91;10494926;28;2590;-52
2023/11/19 17:28:43;;;;;;;;;;;;;;;21.06;43.52;95404.69;10495349;28;2587;-54
2023/11/19 17:33:43;;;;;;;;;;;;;;;21.06;42.79;95409.97;10493740;28;2754;-50
2023/11/19 17:38:44;;;;;;;;;;;;;;;21.06;43.54;95409.97;10496100;28;2590;-54
2023/11/19 17:43:44;;;;;;;;;;;;;;;21.11;42.91;95419.63;10500669;28;2756;-52
2023/11/19 17:48:44;;;;;;;;;;;;;;;21.11;43.41;95416.97;10497376;28;2558;-53
2023/11/19 17:53:45;;;;;;;;;;;;;;;21.08;42.00;95405.94;10494321;28;2535;-55
2023/11/19 17:58:45;;;;;;;;;;;;;;;21.07;42.11;95406.25;10498433;28;2652;-52
2023/11/19 18:03:46;;;;;;;;;;;;;;;21.08;42.20;95417.56;10503560;28;2617;-50
2023/11/19 18:08:46;;;;;;;;;;;;;;;21.08;41.71;95421.75;10502961;28;3010;-55
2023/11/19 18:13:47;;;;;;;;;;;;;;;21.09;41.72;95427.81;10509747;28;4776;-54
2023/11/19 18:18:47;;;;;;;;;;;;;;;21.11;41.55;95435.44;10497120;28;2549;-54
2023/11/19 18:23:47;;;;;;;;;;;;;;;21.09;41.67;95435.72;10496049;28;2729;-52
2023/11/19 18:28:47;;;;;;;;;;;;;;;21.11;41.74;95430.16;10498534;28;2641;-55
2023/11/19 18:33:48;;;;;;;;;;;;;;;21.15;42.05;95437.22;10507034;28;2600;-52
2023/11/19 18:38:49;;;;;;;;;;;;;;;21.20;42.77;95433.75;10501171;28;2634;-50
2023/11/19 18:43:49;;;;;;;;;;;;;;;21.21;42.63;95427.38;10501201;28;2654;-52
2023/11/19 18:48:51;;;;;;;;;;;;;;;21.24;42.21;95437.38;10499448;28;2607;-52
2023/11/19 18:53:51;;;;;;;;;;;;;;;21.25;41.83;95434.44;10497549;28;2614;-51
2023/11/19 18:58:52;;;;;;;;;;;;;;;21.25;41.91;95439.72;10494127;28;2617;-54
2023/11/19 19:03:52;;;;;;;;;;;;;;;21.28;41.92;95446.28;10496071;28;2632;-53
2023/11/19 19:08:52;;;;;;;;;;;;;;;21.27;42.18;95442.09;10505487;28;2602;-55
2023/11/19 19:13:53;;;;;;;;;;;;;;;21.30;41.58;95441.50;10492908;28;4810;-53
2023/11/19 19:18:54;;;;;;;;;;;;;;;21.28;42.16;95444.44;10499358;28;2589;-54
2023/11/19 19:23:55;;;;;;;;;;;;;;;21.30;41.88;95460.75;10496445;28;2596;-55
2023/11/19 19:28:55;;;;;;;;;;;;;;;21.32;41.36;95461.25;10499354;28;2648;-52
2023/11/19 19:33:58;;;;;;;;;;;;;;;21.35;41.37;95462.53;10497013;28;2656;-53
2023/11/19 19:38:59;;;;;;;;;;;;;;;21.36;41.80;95467.53;10501176;28;2575;-53
2023/11/19 19:44:00;;;;;;;;;;;;;;;21.34;41.69;95466.22;10497967;28;2586;-50
2023/11/19 19:49:00;;;;;;;;;;;;;;;21.42;42.42;95470.88;10488108;28;2559;-54
2023/11/19 19:54:00;;;;;;;;;;;;;;;21.45;43.36;95475.59;10499881;28;2641;-53
2023/11/19 19:59:00;;;;;;;;;;;;;;;21.46;44.39;95462.09;10499399;28;3051;-55
2023/11/19 20:04:02;;;;;;;;;;;;;;;21.50;43.94;95470.22;10497742;28;2615;-54
2023/11/19 20:09:03;;;;;;;;;;;;;;;21.53;42.88;95467.81;10485639;28;2626;-52
2023/11/19 20:14:03;;;;;;;;;;;;;;;21.53;44.09;95478.38;10498791;28;4636;-55
2023/11/19 20:19:04;;;;;;;;;;;;;;;21.53;44.02;95488.13;10499659;28;2610;-54
2023/11/19 20:24:05;;;;;;;;;;;;;;;21.54;43.77;95479.13;10494191;28;2618;-55
2023/11/19 20:29:05;;;;;;;;;;;;;;;21.53;43.94;95491.56;10493500;28;2557;-52
2023/11/19 20:34:06;;;;;;;;;;;;;;;21.55;43.94;95491.25;10498845;28;2694;-53
2023/11/19 20:39:06;;;;;;;;;;;;;;;21.56;44.62;95498.88;10500252;28;2658;-52
2023/11/19 20:44:08;;;;;;;;;;;;;;;21.56;44.70;95508.63;10497100;28;2554;-53
2023/11/19 20:49:08;;;;;;;;;;;;;;;21.55;43.83;95504.44;10492733;28;2682;-50
2023/11/19 20:54:09;;;;;;;;;;;;;;;21.52;44.62;95503.16;10490942;28;2691;-53
2023/11/19 20:59:09;;;;;;;;;;;;;;;21.52;44.38;95512.91;10491370;28;2747;-52
2023/11/19 21:04:10;;;;;;;;;;;;;;;21.50;45.16;95510.56;10495515;28;2757;-54
2023/11/19 21:09:10;;;;;;;;;;;;;;;21.55;43.93;95513.16;10494310;28;2579;-52
2023/11/19 21:14:11;;;;;;;;;;;;;;;21.53;44.15;95510.00;10499324;28;4764;-52
2023/11/19 21:19:11;;;;;;;;;;;;;;;21.50;44.58;95486.84;10493032;28;2563;-52
2023/11/19 21:24:11;;;;;;;;;;;;;;;21.45;44.65;95500.06;10489368;28;2696;-53
2023/11/19 21:29:13;;;;;;;;;;;;;;;21.37;44.03;95500.72;10495323;28;2675;-53
2023/11/19 21:34:13;;;;;;;;;;;;;;;21.31;43.91;95485.28;10493334;28;2650;-50
2023/11/19 21:39:13;;;;;;;;;;;;;;;21.23;44.15;95486.66;10495945;28;2594;-50
2023/11/19 21:44:13;;;;;;;;;;;;;;;21.18;45.62;95491.22;10498071;28;2538;-51
2023/11/19 21:49:14;;;;;;;;;;;;;;;21.12;45.52;95492.38;10495299;28;2622;-53
2023/11/19 21:54:14;;;;;;;;;;;;;;;21.04;45.37;95486.63;10498908;28;2655;-51
2023/11/19 21:59:14;;;;;;;;;;;;;;;20.99;44.94;95494.59;10492791;28;2575;-52
2023/11/19 22:04:15;;;;;;;;;;;;;;;20.97;45.02;95491.47;10494333;28;2642;-53
2023/11/19 22:09:15;;;;;;;;;;;;;;;20.92;44.92;95499.41;10498060;28;2623;-49
2023/11/19 22:14:15;;;;;;;;;;;;;;;20.88;45.22;95492.34;10496480;28;4676;-53
2023/11/19 22:19:15;;;;;;;;;;;;;;;20.83;45.15;95497.69;10497687;28;2528;-47
2023/11/19 22:24:16;;;;;;;;;;;;;;;20.81;44.44;95494.53;10495797;28;2747;-47
2023/11/19 22:29:16;;;;;;;;;;;;;;;20.78;44.69;95497.72;10504386;28;2702;-52
2023/11/19 22:34:16;;;;;;;;;;;;;;;20.72;45.02;95497.00;10502915;28;2554;-52
2023/11/19 22:39:17;;;;;;;;;;;;;;;20.69;44.90;95494.91;10494041;28;2543;-54
2023/11/19 22:44:17;;;;;;;;;;;;;;;20.66;45.04;95492.88;10498254;28;2746;-51
2023/11/19 22:49:17;;;;;;;;;;;;;;;20.64;44.77;95502.09;10489504;28;2723;-54
2023/11/19 22:54:18;;;;;;;;;;;;;;;20.59;45.11;95500.31;10494397;28;2661;-54
2023/11/19 22:59:18;;;;;;;;;;;;;;;20.56;45.48;95495.59;10500951;28;2684;-49
2023/11/19 23:04:18;;;;;;;;;;;;;;;20.55;45.01;95506.41;10499644;28;2650;-52
2023/11/19 23:09:19;;;;;;;;;;;;;;;20.52;44.86;95496.44;10493648;28;2894;-51
2023/11/19 23:14:19;;;;;;;;;;;;;;;20.48;45.31;95490.94;10494486;28;4764;-52
2023/11/19 23:19:20;;;;;;;;;;;;;;;20.47;44.83;95491.22;10499672;28;2575;-51
2023/11/19 23:24:20;;;;;;;;;;;;;;;20.45;44.45;95494.13;10497541;28;2621;-54
2023/11/19 23:29:24;;;;;;;;;;;;;;;20.42;44.55;95504.44;10494327;28;2770;-52
2023/11/19 23:34:26;;;;;;;;;;;;;;;20.39;45.00;95515.50;10494050;28;2625;-53
2023/11/19 23:39:26;;;;;;;;;;;;;;;20.36;45.06;95516.06;10501871;28;2518;-53
2023/11/19 23:44:28;;;;;;;;;;;;;;;20.34;44.60;95513.69;10495355;28;2562;-53
2023/11/19 23:49:30;;;;;;;;;;;;;;;20.33;44.67;95511.34;10488992;28;2942;-54
2023/11/19 23:54:31;;;;;;;;;;;;;;;20.30;44.39;95504.03;10491887;28;2622;-54
2023/11/19 23:59:31;;;;;;;;;;;;;;;20.27;44.65;95500.09;10498193;28;2756;-53
